Kearney, NE

11:18 AM CST on February 12, 2016 (GMT -0600)
Kearney Municipal

Weather History for KEAR - December, 2013

Change the Weather History Date:

Sunday, December 1, 2013

  Actual Average Record
Temperature  
Mean Temperature 36 °F 30 °F  
Max Temperature 50 °F 41 °F 70 °F (1998)
Min Temperature 21 °F 18 °F -13 °F (1919)
Degree Days  
Heating Degree Days 29 35  
Month to date heating degree days 35  
Since 1 July heating degree days 1468  
Cooling Degree Days 0 0  
Month to date cooling degree days 0  
Year to date cooling degree days 871  
Moisture  
Dew Point 24 °F    
Average Humidity 65    
Maximum Humidity 88    
Minimum Humidity 42    
Precipitation  
Precipitation 0.00 in - 0.86 in (1981)
Sea Level Pressure  
Sea Level Pressure 30.00 in    
Wind  
Wind Speed 5 mph (SW)    
Max Wind Speed 9 mph    
Max Gust Speed -    
Visibility 10 miles    
Events      
T = Trace of Precipitation, MM = Missing Value Source: NWS Daily Summary

Daily Weather History Graph

Daily Weather History Graph

Search for Another Location

Airport or City:

Trip Planner

Search our weather history database for the weather conditions in past years. The results will help you decide how hot, cold, wet, or windy it might be!

Date:

Astronomy

Dec. 01, 2013 Rise Set
Actual Time 7:41 AM CST 5:09 PM CST
Civil Twilight 7:10 AM CST 5:39 PM CST
Nautical Twilight 6:36 AM CST 6:13 PM CST
Astronomical Twilight 6:03 AM CST 6:46 PM CST
Moon 6:00 AM CST (12/1) 4:20 PM CST (12/1)
Length of Visible Light 10h 29m
Length of Day
9h 28m
Waning Crescent, 2% of the Moon is Illuminated
Dec 1
Waning Crescent
Dec 2
New
Dec 9
First Quarter
Dec 17
Full
Dec 25
Last Quarter

Hourly Weather History & Observations

Time (CST) Temp. Windchill Dew Point Humidity Pressure Visibility Wind Dir Wind Speed Gust Speed Precip Events Conditions
12:15 AM 28.4 °F 20.4 °F 23.0 °F 80% 30.13 in 10.0 mi NE 8.1 mph - N/A   Clear
12:35 AM 30.2 °F 23.4 °F 23.0 °F 75% 30.13 in 10.0 mi NNE 6.9 mph - N/A   Clear
12:55 AM 30.2 °F 24.3 °F 23.0 °F 75% 30.13 in 10.0 mi North 5.8 mph - N/A   Clear
1:15 AM 30.2 °F 24.3 °F 23.0 °F 75% 30.13 in 10.0 mi NNW 5.8 mph - N/A   Clear
1:35 AM 28.4 °F 20.4 °F 21.2 °F 74% 30.12 in 10.0 mi NW 8.1 mph - N/A   Clear
1:55 AM 28.4 °F 22.2 °F 21.2 °F 74% 30.13 in 10.0 mi NNW 5.8 mph - N/A   Clear
2:15 AM 28.4 °F 21.2 °F 23.0 °F 80% 30.12 in 10.0 mi North 6.9 mph - N/A   Clear
2:35 AM 28.4 °F 21.2 °F 21.2 °F 74% 30.13 in 10.0 mi NNW 6.9 mph - N/A   Clear
2:55 AM 26.6 °F 21.2 °F 19.4 °F 74% 30.13 in 10.0 mi NNW 4.6 mph - N/A   Clear
3:15 AM 26.6 °F 20.0 °F 19.4 °F 74% 30.13 in 10.0 mi NNW 5.8 mph - N/A   Clear
3:35 AM 26.6 °F - 21.2 °F 80% 30.12 in 10.0 mi North - - N/A   Clear
3:55 AM 24.8 °F 17.9 °F 19.4 °F 80% 30.11 in 10.0 mi NW 5.8 mph - N/A   Clear
4:15 AM 24.8 °F 16.9 °F 21.2 °F 86% 30.10 in 10.0 mi NW 6.9 mph - N/A   Clear
4:35 AM 24.8 °F 17.9 °F 19.4 °F 80% 30.10 in 10.0 mi NNW 5.8 mph - N/A   Clear
4:55 AM 23.0 °F 17.0 °F 17.6 °F 80% 30.09 in 10.0 mi NNW 4.6 mph - N/A   Clear
5:15 AM 24.8 °F 17.9 °F 19.4 °F 80% 30.10 in 10.0 mi NW 5.8 mph - N/A   Clear
5:35 AM 24.8 °F 17.9 °F 19.4 °F 80% 30.10 in 10.0 mi NW 5.8 mph - N/A   Clear
5:55 AM 24.8 °F 17.9 °F 19.4 °F 80% 30.10 in 10.0 mi NW 5.8 mph - N/A   Clear
6:15 AM 23.0 °F 13.9 °F 19.4 °F 86% 30.10 in 10.0 mi NW 8.1 mph - N/A   Clear
6:35 AM 23.0 °F 14.7 °F 19.4 °F 86% 30.11 in 10.0 mi NW 6.9 mph - N/A   Clear
6:55 AM 23.0 °F 13.9 °F 19.4 °F 86% 30.11 in 10.0 mi NW 8.1 mph - N/A   Clear
7:15 AM 21.2 °F 13.6 °F 17.6 °F 86% 30.10 in 10.0 mi NNW 5.8 mph - N/A   Clear
7:35 AM 21.2 °F 13.6 °F 17.6 °F 86% 30.11 in 10.0 mi NW 5.8 mph - N/A   Clear
7:55 AM 21.2 °F 12.6 °F 17.6 °F 86% 30.11 in 10.0 mi NW 6.9 mph - N/A   Clear
8:15 AM 23.0 °F 14.7 °F 19.4 °F 86% 30.12 in 10.0 mi NW 6.9 mph - N/A   Clear
8:35 AM 24.8 °F 16.1 °F 19.4 °F 80% 30.12 in 10.0 mi NW 8.1 mph - N/A   Clear
8:55 AM 26.6 °F 21.2 °F 21.2 °F 80% 30.11 in 10.0 mi NW 4.6 mph - N/A   Clear
9:15 AM 28.4 °F 23.3 °F 23.0 °F 80% 30.11 in 10.0 mi NNW 4.6 mph - N/A   Clear
9:35 AM 30.2 °F - 24.8 °F 80% 30.10 in 10.0 mi Calm Calm - N/A   Clear
9:55 AM 32.0 °F - 24.8 °F 75% 30.10 in 10.0 mi Calm Calm - N/A   Clear
10:15 AM 35.6 °F - 26.6 °F 70% 30.10 in 10.0 mi Calm Calm - N/A   Clear
10:35 AM 37.4 °F 33.8 °F 26.6 °F 65% 30.09 in 10.0 mi ESE 4.6 mph - N/A   Clear
10:55 AM 37.4 °F 33.8 °F 26.6 °F 65% 30.09 in 10.0 mi SSE 4.6 mph - N/A   Clear
11:15 AM 39.2 °F 35.0 °F 28.4 °F 65% 30.09 in 10.0 mi South 5.8 mph - N/A   Clear
11:35 AM 41.0 °F 38.0 °F 28.4 °F 61% 30.07 in 10.0 mi South 4.6 mph - N/A   Clear
11:55 AM 42.8 °F - 28.4 °F 57% 30.07 in 10.0 mi Calm Calm - N/A   Clear
12:15 PM 42.8 °F 41.1 °F 28.4 °F 57% 30.05 in 10.0 mi South 3.5 mph - N/A   Clear
12:35 PM 44.6 °F 41.4 °F 28.4 °F 53% 30.03 in 10.0 mi SSW 5.8 mph - N/A   Clear
12:55 PM 44.6 °F 41.4 °F 28.4 °F 53% 30.02 in 10.0 mi South 5.8 mph - N/A   Clear
1:15 PM 44.6 °F 40.2 °F 28.4 °F 53% 30.00 in 10.0 mi SSE 8.1 mph - N/A   Clear
1:35 PM 44.6 °F 40.7 °F 28.4 °F 53% 29.99 in 10.0 mi South 6.9 mph - N/A   Clear
1:55 PM 44.6 °F 41.4 °F 30.2 °F 57% 29.98 in 10.0 mi South 5.8 mph - N/A   Clear
2:15 PM 46.4 °F 42.4 °F 30.2 °F 53% 29.96 in 10.0 mi South 8.1 mph - N/A   Clear
2:35 PM 48.2 °F - 30.2 °F 50% 29.95 in 10.0 mi South 6.9 mph - N/A   Clear
2:55 PM 48.2 °F - 30.2 °F 50% 29.94 in 10.0 mi SSW 4.6 mph - N/A   Clear
3:15 PM 50.0 °F - 30.2 °F 47% 29.93 in 10.0 mi SW 4.6 mph - N/A   Clear
3:35 PM 50.0 °F - 30.2 °F 47% 29.93 in 10.0 mi SW 5.8 mph - N/A   Partly Cloudy
3:55 PM 50.0 °F - 28.4 °F 43% 29.94 in 10.0 mi SW 8.1 mph - N/A   Mostly Cloudy
4:15 PM 48.2 °F - 28.4 °F 46% 29.93 in 10.0 mi SW 5.8 mph - N/A   Mostly Cloudy
4:35 PM 48.2 °F - 28.4 °F 46% 29.92 in 10.0 mi SSW 8.1 mph - N/A   Partly Cloudy
4:55 PM 44.6 °F 40.2 °F 28.4 °F 53% 29.92 in 10.0 mi SSW 8.1 mph - N/A   Clear
5:15 PM 42.8 °F 38.6 °F 26.6 °F 53% 29.91 in 10.0 mi SSW 6.9 mph - N/A   Clear
5:35 PM 37.4 °F 32.1 °F 24.8 °F 60% 29.91 in 10.0 mi South 6.9 mph - N/A   Clear
5:55 PM 35.6 °F 32.8 °F 24.8 °F 65% 29.90 in 10.0 mi South 3.5 mph - N/A   Clear
6:15 PM 35.6 °F 32.8 °F 24.8 °F 65% 29.89 in 10.0 mi South 3.5 mph - N/A   Clear
6:35 PM 33.8 °F 30.8 °F 24.8 °F 70% 29.89 in 10.0 mi South 3.5 mph - N/A   Clear
6:55 PM 35.6 °F - 24.8 °F 65% 29.88 in 10.0 mi Calm Calm - N/A   Clear
7:15 PM 33.8 °F 30.8 °F 24.8 °F 70% 29.87 in 10.0 mi South 3.5 mph - N/A   Clear
7:35 PM 33.8 °F 30.8 °F 24.8 °F 70% 29.87 in 10.0 mi South 3.5 mph - N/A   Clear
7:55 PM 33.8 °F 30.8 °F 24.8 °F 70% 29.86 in 10.0 mi South 3.5 mph - N/A   Clear
8:15 PM 33.8 °F 30.8 °F 24.8 °F 70% 29.86 in 10.0 mi South 3.5 mph - N/A   Clear
8:35 PM 33.8 °F 28.6 °F 24.8 °F 70% 29.85 in 10.0 mi South 5.8 mph - N/A   Clear
8:55 PM 35.6 °F 30.7 °F 26.6 °F 70% 29.84 in 10.0 mi SSW 5.8 mph - N/A   Clear
9:15 PM 33.8 °F 30.8 °F 24.8 °F 70% 29.84 in 10.0 mi SSW 3.5 mph - N/A   Clear
9:35 PM 32.0 °F 26.4 °F 24.8 °F 75% 29.82 in 10.0 mi South 5.8 mph - N/A   Clear
9:55 PM 30.2 °F 24.3 °F 24.8 °F 80% 29.82 in 10.0 mi SSE 5.8 mph - N/A   Clear
10:15 PM 30.2 °F 25.4 °F 24.8 °F 80% 29.82 in 10.0 mi SSE 4.6 mph - N/A   Clear
10:35 PM 32.0 °F 26.4 °F 26.6 °F 80% 29.81 in 10.0 mi South 5.8 mph - N/A   Mostly Cloudy
10:55 PM 33.8 °F 27.7 °F 26.6 °F 75% 29.80 in 10.0 mi South 6.9 mph - N/A   Overcast
11:15 PM 35.6 °F 29.2 °F 28.4 °F 75% 29.79 in 10.0 mi South 8.1 mph - N/A   Overcast
11:35 PM 35.6 °F 29.9 °F 26.6 °F 70% 29.78 in 10.0 mi South 6.9 mph - N/A   Mostly Cloudy
11:55 PM 35.6 °F 29.2 °F 28.4 °F 75% 29.78 in 10.0 mi SSW 8.1 mph - N/A   Overcast